Time;durP1;ratioP1;P1;durP2;ratioP2;P2;SDS_P1;SDS_P2;PMS_P1;PMS_P2;Temp;Humidity;BMP_temperature;BMP_pressure;BME280_temperature;BME280_humidity;BME280_pressure;Samples;Min_cycle;Max_cycle;Signal;HPM_P1;HPM_P2
2023/01/23 00:01:50;;;;;;;;;;;20.80;55.00;;;;;;1624792;72;727;-66
2023/01/23 00:03:53;;;;;;;;;;;20.80;55.20;;;;;;1625853;72;719;-65
2023/01/23 00:05:58;;;;;;;;;;;20.80;55.30;;;;;;1622588;72;1130;-66
2023/01/23 00:08:00;;;;;;;;;;;20.80;55.20;;;;;;1625530;72;703;-66
2023/01/23 00:10:02;;;;;;;;;;;20.80;55.10;;;;;;1623641;72;784;-65
2023/01/23 00:12:04;;;;;;;;;;;20.80;55.20;;;;;;1626373;72;744;-67
2023/01/23 00:14:06;;;;;;;;;;;20.80;55.00;;;;;;1630349;72;1944;-68
2023/01/23 00:16:09;;;;;;;;;;;20.70;55.20;;;;;;1616337;71;225575;-64
2023/01/23 00:18:11;;;;;;;;;;;20.70;55.20;;;;;;1593293;73;792;-64
2023/01/23 00:20:13;;;;;;;;;;;20.70;55.30;;;;;;1592556;73;701;-64
2023/01/23 00:22:15;;;;;;;;;;;20.70;55.30;;;;;;1592869;73;708;-67
2023/01/23 00:24:17;;;;;;;;;;;20.70;55.30;;;;;;1587054;73;790;-64
2023/01/23 00:26:20;;;;;;;;;;;20.70;55.30;;;;;;1595972;73;1196;-65
2023/01/23 00:28:22;;;;;;;;;;;20.70;55.30;;;;;;1590970;73;812;-64
2023/01/23 00:30:24;;;;;;;;;;;20.60;55.10;;;;;;1597054;73;682;-65
2023/01/23 00:32:27;;;;;;;;;;;20.60;55.10;;;;;;1594695;73;763;-66
2023/01/23 00:34:29;;;;;;;;;;;20.60;55.20;;;;;;1596249;73;1929;-63
2023/01/23 00:36:32;;;;;;;;;;;20.70;55.20;;;;;;1595807;73;1154;-64
2023/01/23 00:38:34;;;;;;;;;;;20.70;55.10;;;;;;1597358;73;604;-64
2023/01/23 00:40:36;;;;;;;;;;;20.70;55.00;;;;;;1594565;73;779;-65
2023/01/23 00:42:37;;;;;;;;;;;20.80;55.00;;;;;;1589748;73;1542;-64
2023/01/23 00:44:39;;;;;;;;;;;20.80;54.90;;;;;;1585270;73;662;-66
2023/01/23 00:46:41;;;;;;;;;;;20.80;54.90;;;;;;1597482;73;1113;-65
2023/01/23 00:48:43;;;;;;;;;;;20.70;54.70;;;;;;1595499;73;750;-66
2023/01/23 00:50:45;;;;;;;;;;;20.80;54.70;;;;;;1594105;73;772;-65
2023/01/23 00:52:47;;;;;;;;;;;20.70;54.70;;;;;;1599652;73;734;-64
2023/01/23 00:54:49;;;;;;;;;;;20.70;54.80;;;;;;1593878;73;1912;-66
2023/01/23 00:56:51;;;;;;;;;;;20.70;55.00;;;;;;1599832;73;1114;-66
2023/01/23 00:58:53;;;;;;;;;;;20.60;54.90;;;;;;1593857;73;716;-66
2023/01/23 01:00:55;;;;;;;;;;;20.60;55.00;;;;;;1588575;73;727;-66
2023/01/23 01:02:57;;;;;;;;;;;20.60;55.00;;;;;;1596890;73;772;-66
2023/01/23 01:04:58;;;;;;;;;;;20.60;55.00;;;;;;1594100;73;682;-66
2023/01/23 01:07:00;;;;;;;;;;;20.60;55.00;;;;;;1590678;73;1126;-68
2023/01/23 01:09:03;;;;;;;;;;;20.60;55.00;;;;;;1591394;73;789;-66
2023/01/23 01:11:05;;;;;;;;;;;20.60;54.90;;;;;;1596047;73;763;-66
2023/01/23 01:13:07;;;;;;;;;;;20.70;55.00;;;;;;1596688;73;728;-64
2023/01/23 01:15:09;;;;;;;;;;;20.70;55.10;;;;;;1595143;73;1937;-65
2023/01/23 01:17:11;;;;;;;;;;;20.60;55.00;;;;;;1599455;73;1102;-66
2023/01/23 01:19:13;;;;;;;;;;;20.70;55.30;;;;;;1606913;73;764;-65
2023/01/23 01:21:15;;;;;;;;;;;20.70;55.20;;;;;;1604554;72;730;-64
2023/01/23 01:23:17;;;;;;;;;;;20.70;55.20;;;;;;1599678;73;730;-66
2023/01/23 01:25:19;;;;;;;;;;;20.60;55.00;;;;;;1599213;73;800;-65
2023/01/23 01:27:21;;;;;;;;;;;20.60;55.50;;;;;;1605943;73;1090;-65
2023/01/23 01:29:23;;;;;;;;;;;20.70;55.70;;;;;;1601349;73;621;-65
2023/01/23 01:31:24;;;;;;;;;;;20.70;55.50;;;;;;1599025;73;726;-66
2023/01/23 01:33:27;;;;;;;;;;;20.70;55.40;;;;;;1607053;73;783;-65
2023/01/23 01:35:29;;;;;;;;;;;20.80;55.20;;;;;;1605005;73;2105;-66
2023/01/23 01:37:32;;;;;;;;;;;20.80;55.00;;;;;;1606404;72;1008;-64
2023/01/23 01:39:34;;;;;;;;;;;20.90;55.00;;;;;;1601860;73;733;-64
2023/01/23 01:41:36;;;;;;;;;;;20.90;54.90;;;;;;1604912;73;744;-64
2023/01/23 01:43:38;;;;;;;;;;;20.90;55.00;;;;;;1593614;73;765;-64
2023/01/23 01:46:00;;;;;;;;;;;20.80;54.90;;;;;;1603899;73;1150;-64
2023/01/23 01:48:02;;;;;;;;;;;20.80;54.90;;;;;;1592902;72;759;-65
2023/01/23 01:50:04;;;;;;;;;;;20.80;54.80;;;;;;1598625;73;745;-67
2023/01/23 01:52:06;;;;;;;;;;;20.90;54.90;;;;;;1598065;73;737;-64
2023/01/23 01:54:16;;;;;;;;;;;20.90;54.80;;;;;;1602986;73;1944;-66
2023/01/23 01:56:18;;;;;;;;;;;20.90;54.70;;;;;;1600816;72;1166;-64
2023/01/23 01:58:20;;;;;;;;;;;20.90;54.70;;;;;;1605659;72;778;-65
2023/01/23 02:00:22;;;;;;;;;;;20.90;54.70;;;;;;1598065;72;800;-65
2023/01/23 02:02:25;;;;;;;;;;;21.00;54.70;;;;;;1606556;73;811;-66
2023/01/23 02:04:26;;;;;;;;;;;20.90;54.60;;;;;;1596768;73;733;-64
2023/01/23 02:06:28;;;;;;;;;;;21.00;54.60;;;;;;1600584;72;1197;-65
2023/01/23 02:08:48;;;;;;;;;;;21.00;54.60;;;;;;1605314;73;783;-65
2023/01/23 02:10:51;;;;;;;;;;;21.00;54.40;;;;;;1596300;73;791;-64
2023/01/23 02:12:53;;;;;;;;;;;21.00;54.30;;;;;;1596751;73;791;-66
2023/01/23 02:14:55;;;;;;;;;;;21.00;54.40;;;;;;1602864;73;1909;-68
2023/01/23 02:17:00;;;;;;;;;;;21.00;54.30;;;;;;1605476;72;1145;-66
2023/01/23 02:19:02;;;;;;;;;;;21.00;54.30;;;;;;1604620;72;1702;-66
2023/01/23 02:21:05;;;;;;;;;;;21.00;54.40;;;;;;1599965;72;808;-66
2023/01/23 02:23:11;;;;;;;;;;;21.00;54.40;;;;;;1603049;73;689;-66
2023/01/23 02:25:18;;;;;;;;;;;21.00;54.60;;;;;;1602179;72;2113;-66
2023/01/23 02:27:20;;;;;;;;;;;21.00;54.40;;;;;;1604520;72;1798;-63
2023/01/23 02:29:22;;;;;;;;;;;21.00;54.20;;;;;;1598696;73;741;-66
2023/01/23 02:31:24;;;;;;;;;;;20.90;54.30;;;;;;1598659;74;773;-66
2023/01/23 02:33:27;;;;;;;;;;;20.90;54.70;;;;;;1603921;74;733;-67
2023/01/23 02:35:29;;;;;;;;;;;21.00;54.40;;;;;;1602328;73;1929;-66
2023/01/23 02:37:33;;;;;;;;;;;20.90;54.40;;;;;;1612007;72;995;-65
2023/01/23 02:39:35;;;;;;;;;;;20.90;54.40;;;;;;1605870;72;793;-66
2023/01/23 02:41:38;;;;;;;;;;;20.90;54.70;;;;;;1600437;72;801;-65
2023/01/23 02:43:40;;;;;;;;;;;20.90;54.70;;;;;;1602506;73;770;-66
2023/01/23 02:45:43;;;;;;;;;;;20.80;54.90;;;;;;1607263;73;1123;-65
2023/01/23 02:47:45;;;;;;;;;;;20.80;55.20;;;;;;1599141;72;789;-66
2023/01/23 02:49:47;;;;;;;;;;;20.90;55.20;;;;;;1605727;73;781;-67
2023/01/23 02:51:49;;;;;;;;;;;20.90;55.10;;;;;;1598049;72;803;-67
2023/01/23 02:53:51;;;;;;;;;;;21.00;55.00;;;;;;1606255;72;701;-68
2023/01/23 02:55:53;;;;;;;;;;;21.00;54.90;;;;;;1593574;73;1941;-65
2023/01/23 03:00:14;;;;;;;;;;;21.10;54.70;;;;;;1606119;72;693;-65
2023/01/23 03:00:22;;;;;;;;;;;21.10;54.70;;;;;;1593982;73;965;-66
2023/01/23 03:02:21;;;;;;;;;;;21.10;54.80;;;;;;1598215;73;1192;-66
2023/01/23 03:04:23;;;;;;;;;;;21.10;54.60;;;;;;1603316;73;774;-66
2023/01/23 03:06:24;;;;;;;;;;;21.10;54.30;;;;;;1606929;72;1169;-66
2023/01/23 03:08:32;;;;;;;;;;;21.20;54.20;;;;;;1602061;73;711;-68
2023/01/23 03:10:30;;;;;;;;;;;21.00;54.20;;;;;;1603568;73;1447;-65
2023/01/23 03:12:32;;;;;;;;;;;21.00;54.20;;;;;;1605143;73;802;-66
2023/01/23 03:14:34;;;;;;;;;;;21.00;54.30;;;;;;1603182;72;1944;-65
2023/01/23 03:16:35;;;;;;;;;;;21.00;54.40;;;;;;1606771;73;1093;-66
2023/01/23 03:18:37;;;;;;;;;;;21.00;54.50;;;;;;1604735;73;826;-66
2023/01/23 03:20:40;;;;;;;;;;;20.90;54.50;;;;;;1603181;72;779;-67
2023/01/23 03:22:41;;;;;;;;;;;20.90;54.70;;;;;;1603279;73;751;-68
2023/01/23 03:24:43;;;;;;;;;;;20.90;54.80;;;;;;1603221;73;781;-66
2023/01/23 03:26:46;;;;;;;;;;;20.90;54.80;;;;;;1606111;73;1154;-69
2023/01/23 03:31:07;;;;;;;;;;;20.80;54.70;;;;;;1606622;72;1686;-66
2023/01/23 03:33:09;;;;;;;;;;;20.90;54.80;;;;;;1606807;72;735;-65
2023/01/23 03:35:19;;;;;;;;;;;20.80;54.70;;;;;;1607523;72;1910;-66
2023/01/23 03:37:18;;;;;;;;;;;20.90;54.90;;;;;;1603571;72;1422;-65
2023/01/23 03:41:40;;;;;;;;;;;20.80;54.80;;;;;;1604998;73;1657;-65
2023/01/23 03:43:42;;;;;;;;;;;20.80;54.80;;;;;;1604008;73;815;-64
2023/01/23 03:45:44;;;;;;;;;;;20.90;54.90;;;;;;1608954;72;1078;-65
2023/01/23 03:47:46;;;;;;;;;;;20.90;54.90;;;;;;1603195;73;755;-65
2023/01/23 03:49:48;;;;;;;;;;;20.90;54.80;;;;;;1611786;72;677;-65
2023/01/23 03:51:50;;;;;;;;;;;20.80;54.70;;;;;;1603138;72;670;-64
2023/01/23 03:53:52;;;;;;;;;;;20.80;54.70;;;;;;1605057;72;766;-66
2023/01/23 03:55:54;;;;;;;;;;;20.90;54.80;;;;;;1602287;73;1960;-65
2023/01/23 03:57:55;;;;;;;;;;;20.90;54.80;;;;;;1599850;73;715;-66
2023/01/23 03:59:57;;;;;;;;;;;20.90;54.80;;;;;;1604184;72;742;-67
2023/01/23 04:02:00;;;;;;;;;;;20.90;54.80;;;;;;1604715;72;751;-69
2023/01/23 04:04:02;;;;;;;;;;;20.90;54.80;;;;;;1602516;74;714;-66
2023/01/23 04:06:04;;;;;;;;;;;21.00;54.80;;;;;;1599645;72;1157;-67
2023/01/23 04:08:05;;;;;;;;;;;20.90;54.70;;;;;;1604401;72;749;-66
2023/01/23 04:10:08;;;;;;;;;;;21.00;54.70;;;;;;1601597;73;773;-65
2023/01/23 04:12:10;;;;;;;;;;;20.90;54.60;;;;;;1604596;73;604;-66
2023/01/23 04:14:11;;;;;;;;;;;21.00;54.80;;;;;;1601952;73;677;-66
2023/01/23 04:16:13;;;;;;;;;;;21.00;54.80;;;;;;1602223;73;1922;-68
2023/01/23 04:18:15;;;;;;;;;;;21.00;54.70;;;;;;1605302;73;781;-66
2023/01/23 04:20:17;;;;;;;;;;;21.00;54.60;;;;;;1601286;73;707;-66
2023/01/23 04:22:19;;;;;;;;;;;21.00;54.50;;;;;;1601220;72;695;-67
2023/01/23 04:24:21;;;;;;;;;;;21.00;54.40;;;;;;1603342;73;775;-67
2023/01/23 04:26:23;;;;;;;;;;;21.00;54.50;;;;;;1602277;73;1549;-67
2023/01/23 04:28:25;;;;;;;;;;;21.00;54.40;;;;;;1595597;73;743;-67
2023/01/23 04:30:26;;;;;;;;;;;21.00;54.40;;;;;;1598200;73;804;-68
2023/01/23 04:32:28;;;;;;;;;;;21.00;54.40;;;;;;1610302;72;743;-66
2023/01/23 04:34:30;;;;;;;;;;;21.00;54.40;;;;;;1606645;74;716;-67
2023/01/23 04:36:32;;;;;;;;;;;21.00;54.40;;;;;;1611066;72;1928;-67
2023/01/23 04:38:34;;;;;;;;;;;21.10;54.50;;;;;;1605517;73;696;-66
2023/01/23 04:40:36;;;;;;;;;;;21.00;54.40;;;;;;1607606;73;701;-66
2023/01/23 04:42:38;;;;;;;;;;;21.10;54.50;;;;;;1607328;74;763;-68
2023/01/23 04:44:39;;;;;;;;;;;21.00;54.40;;;;;;1601339;73;793;-65
2023/01/23 04:46:41;;;;;;;;;;;21.10;54.60;;;;;;1607706;72;1141;-66
2023/01/23 04:48:44;;;;;;;;;;;21.10;54.50;;;;;;1598063;73;776;-66
2023/01/23 04:50:46;;;;;;;;;;;21.00;54.40;;;;;;1605190;73;687;-66
2023/01/23 04:52:48;;;;;;;;;;;21.10;54.30;;;;;;1605204;73;728;-68
2023/01/23 04:54:49;;;;;;;;;;;21.10;54.30;;;;;;1598633;73;1949;-67
2023/01/23 04:56:51;;;;;;;;;;;21.20;54.30;;;;;;1599257;73;1143;-66
2023/01/23 04:58:53;;;;;;;;;;;21.10;54.30;;;;;;1606137;73;655;-65
2023/01/23 05:00:57;;;;;;;;;;;21.20;54.30;;;;;;1603129;72;802;-68
2023/01/23 05:02:59;;;;;;;;;;;21.10;54.30;;;;;;1606120;73;1726;-67
2023/01/23 05:05:00;;;;;;;;;;;21.10;54.30;;;;;;1609322;72;869;-66
2023/01/23 05:07:02;;;;;;;;;;;21.10;54.40;;;;;;1606317;73;1113;-65
2023/01/23 05:09:04;;;;;;;;;;;21.10;54.20;;;;;;1604072;72;752;-65
2023/01/23 05:11:06;;;;;;;;;;;21.10;54.40;;;;;;1598845;74;753;-66
2023/01/23 05:13:09;;;;;;;;;;;21.10;54.30;;;;;;1603445;73;738;-67
2023/01/23 05:15:11;;;;;;;;;;;21.20;54.30;;;;;;1606817;72;1921;-65
2023/01/23 05:17:13;;;;;;;;;;;21.10;54.40;;;;;;1606302;73;1119;-65
2023/01/23 05:19:14;;;;;;;;;;;21.10;54.30;;;;;;1606171;73;802;-66
2023/01/23 05:21:16;;;;;;;;;;;21.20;54.30;;;;;;1603498;73;714;-66
2023/01/23 05:23:18;;;;;;;;;;;21.20;54.40;;;;;;1599778;73;1525;-66
2023/01/23 05:25:24;;;;;;;;;;;21.10;54.40;;;;;;1595465;73;730;-66
2023/01/23 05:27:26;;;;;;;;;;;21.20;54.30;;;;;;1606068;73;1114;-66
2023/01/23 05:29:28;;;;;;;;;;;21.20;54.30;;;;;;1601969;72;703;-66
2023/01/23 05:31:30;;;;;;;;;;;21.10;54.20;;;;;;1606172;72;767;-66
2023/01/23 05:33:31;;;;;;;;;;;21.20;54.20;;;;;;1604813;73;733;-66
2023/01/23 05:35:33;;;;;;;;;;;21.20;54.20;;;;;;1606664;73;1936;-66
2023/01/23 05:37:35;;;;;;;;;;;21.20;54.30;;;;;;1602301;72;1126;-65
2023/01/23 05:39:37;;;;;;;;;;;21.20;54.20;;;;;;1604898;73;735;-66
2023/01/23 05:41:39;;;;;;;;;;;21.20;54.10;;;;;;1605937;73;693;-66
2023/01/23 05:43:41;;;;;;;;;;;21.30;54.30;;;;;;1599753;73;662;-66
2023/01/23 05:45:43;;;;;;;;;;;21.20;54.20;;;;;;1602654;72;1150;-67
2023/01/23 05:47:46;;;;;;;;;;;21.20;54.20;;;;;;1601546;72;762;-67
2023/01/23 05:49:48;;;;;;;;;;;21.20;54.00;;;;;;1598868;73;737;-67
2023/01/23 05:51:50;;;;;;;;;;;21.20;54.10;;;;;;1599542;73;731;-66
2023/01/23 05:53:51;;;;;;;;;;;21.20;54.20;;;;;;1604632;72;639;-67
2023/01/23 05:55:53;;;;;;;;;;;21.30;54.70;;;;;;1602491;72;1952;-67
2023/01/23 05:57:55;;;;;;;;;;;21.30;54.60;;;;;;1599052;73;704;-70
2023/01/23 05:59:57;;;;;;;;;;;21.30;54.40;;;;;;1606551;73;735;-69
2023/01/23 06:01:59;;;;;;;;;;;21.30;54.30;;;;;;1604132;73;793;-70
2023/01/23 06:04:01;;;;;;;;;;;21.40;54.10;;;;;;1606952;73;765;-70
2023/01/23 06:06:03;;;;;;;;;;;21.40;54.00;;;;;;1606700;72;1118;-70
2023/01/23 06:08:04;;;;;;;;;;;21.30;53.90;;;;;;1600555;73;773;-71
2023/01/23 06:10:07;;;;;;;;;;;21.40;53.70;;;;;;1604690;73;756;-69
2023/01/23 06:12:09;;;;;;;;;;;21.40;53.70;;;;;;1600176;74;832;-70
2023/01/23 06:14:11;;;;;;;;;;;21.40;53.60;;;;;;1605237;73;822;-72
2023/01/23 06:16:13;;;;;;;;;;;21.30;53.50;;;;;;1600931;72;3041;-68
2023/01/23 06:18:14;;;;;;;;;;;21.40;53.50;;;;;;1552139;75;734;-67
2023/01/23 06:20:16;;;;;;;;;;;21.40;53.40;;;;;;1549536;75;1294;-67
2023/01/23 06:22:18;;;;;;;;;;;21.40;53.30;;;;;;1545885;75;764;-68
2023/01/23 06:24:20;;;;;;;;;;;21.30;53.20;;;;;;1538519;76;713;-69
2023/01/23 06:26:22;;;;;;;;;;;21.40;53.30;;;;;;1538072;75;1216;-69
2023/01/23 06:28:24;;;;;;;;;;;21.40;53.00;;;;;;1519897;76;659;-69
2023/01/23 06:30:26;;;;;;;;;;;21.40;53.00;;;;;;1522097;76;816;-69
2023/01/23 06:32:28;;;;;;;;;;;21.30;53.00;;;;;;1537536;76;666;-73
2023/01/23 06:34:29;;;;;;;;;;;21.40;52.90;;;;;;1524460;76;698;-68
2023/01/23 06:36:32;;;;;;;;;;;21.30;52.80;;;;;;1532810;75;1932;-72
2023/01/23 06:38:34;;;;;;;;;;;21.40;52.80;;;;;;1534568;76;734;-68
2023/01/23 06:40:36;;;;;;;;;;;21.40;52.70;;;;;;1524345;76;795;-69
2023/01/23 06:42:38;;;;;;;;;;;21.40;52.70;;;;;;1534862;76;785;-68
2023/01/23 06:44:42;;;;;;;;;;;21.30;52.60;;;;;;1531623;76;788;-66
2023/01/23 06:46:43;;;;;;;;;;;21.30;52.60;;;;;;1523304;76;1163;-67
2023/01/23 06:48:45;;;;;;;;;;;21.30;52.60;;;;;;1535924;76;722;-70
2023/01/23 06:50:47;;;;;;;;;;;21.30;52.60;;;;;;1522506;76;744;-67
2023/01/23 06:52:49;;;;;;;;;;;21.30;52.60;;;;;;1515110;76;772;-67
2023/01/23 06:54:51;;;;;;;;;;;21.30;52.60;;;;;;1523267;76;723;-65
2023/01/23 06:56:53;;;;;;;;;;;21.30;52.60;;;;;;1524166;77;1926;-65
2023/01/23 06:58:55;;;;;;;;;;;21.30;52.60;;;;;;1519596;76;704;-67
2023/01/23 07:00:56;;;;;;;;;;;21.30;52.50;;;;;;1520313;76;705;-66
2023/01/23 07:03:02;;;;;;;;;;;21.40;52.50;;;;;;1524014;76;774;-66
2023/01/23 07:05:02;;;;;;;;;;;21.30;52.50;;;;;;1516494;76;1700;-66
2023/01/23 07:07:04;;;;;;;;;;;21.40;52.40;;;;;;1523844;77;1143;-66
2023/01/23 07:09:06;;;;;;;;;;;21.30;52.40;;;;;;1515781;76;723;-67
2023/01/23 07:11:08;;;;;;;;;;;21.40;52.40;;;;;;1524119;76;890;-66
2023/01/23 07:13:10;;;;;;;;;;;21.30;52.30;;;;;;1517074;77;726;-69
2023/01/23 07:15:12;;;;;;;;;;;21.40;50.90;;;;;;1522000;76;1488;-69
2023/01/23 07:17:14;;;;;;;;;;;21.60;51.40;;;;;;1527551;76;1941;-68
2023/01/23 07:19:16;;;;;;;;;;;21.80;50.20;;;;;;1524102;76;734;-69
2023/01/23 07:21:18;;;;;;;;;;;21.80;49.00;;;;;;1519274;76;725;-68
2023/01/23 07:23:19;;;;;;;;;;;22.00;48.10;;;;;;1524295;76;769;-68
2023/01/23 07:25:21;;;;;;;;;;;22.00;47.30;;;;;;1515351;76;763;-68
2023/01/23 07:27:23;;;;;;;;;;;22.00;46.60;;;;;;1523616;76;1248;-68
2023/01/23 07:29:25;;;;;;;;;;;21.90;46.10;;;;;;1529199;77;665;-67
2023/01/23 07:31:27;;;;;;;;;;;21.90;45.40;;;;;;1526555;75;791;-67
2023/01/23 07:33:29;;;;;;;;;;;21.90;44.90;;;;;;1521294;76;735;-68
2023/01/23 07:35:31;;;;;;;;;;;21.80;44.20;;;;;;1519294;76;708;-67
2023/01/23 07:37:33;;;;;;;;;;;21.70;43.80;;;;;;1520617;76;1942;-67
2023/01/23 07:39:35;;;;;;;;;;;21.70;43.50;;;;;;1524118;76;732;-66
2023/01/23 07:41:36;;;;;;;;;;;21.60;43.10;;;;;;1491584;78;1209;-68
2023/01/23 07:43:38;;;;;;;;;;;21.60;42.80;;;;;;1492919;78;714;-68
2023/01/23 07:45:40;;;;;;;;;;;21.50;42.50;;;;;;1499575;78;723;-69
2023/01/23 07:47:42;;;;;;;;;;;21.40;42.10;;;;;;1491123;77;1088;-67
2023/01/23 07:49:44;;;;;;;;;;;21.40;41.70;;;;;;1501323;78;708;-67
2023/01/23 07:51:46;;;;;;;;;;;21.30;41.50;;;;;;1495373;78;814;-66
2023/01/23 07:53:48;;;;;;;;;;;21.20;41.30;;;;;;1495184;78;730;-67
2023/01/23 07:55:50;;;;;;;;;;;21.20;40.80;;;;;;1494599;78;748;-67
2023/01/23 07:57:52;;;;;;;;;;;21.20;40.70;;;;;;1487838;78;1993;-67
2023/01/23 07:59:54;;;;;;;;;;;21.10;40.70;;;;;;1494513;78;708;-67
2023/01/23 08:01:56;;;;;;;;;;;21.10;40.20;;;;;;1494692;78;718;-66
2023/01/23 08:03:57;;;;;;;;;;;21.10;40.10;;;;;;1493978;78;833;-69
2023/01/23 08:05:59;;;;;;;;;;;21.00;39.50;;;;;;1494007;78;1151;-66
2023/01/23 08:08:01;;;;;;;;;;;20.90;39.60;;;;;;1495750;78;699;-67
2023/01/23 08:10:03;;;;;;;;;;;20.90;39.20;;;;;;1495368;78;727;-67
2023/01/23 08:12:05;;;;;;;;;;;20.80;38.80;;;;;;1490331;78;1483;-66
2023/01/23 08:14:07;;;;;;;;;;;20.70;38.90;;;;;;1493640;78;695;-67
2023/01/23 08:16:09;;;;;;;;;;;20.70;38.70;;;;;;1491111;78;1954;-68
2023/01/23 08:18:11;;;;;;;;;;;20.70;38.60;;;;;;1489663;78;696;-68
2023/01/23 08:20:13;;;;;;;;;;;20.60;38.00;;;;;;1487450;78;1068;-66
2023/01/23 08:22:15;;;;;;;;;;;20.60;37.80;;;;;;1491942;78;784;-66
2023/01/23 08:24:17;;;;;;;;;;;20.60;37.90;;;;;;1494275;78;772;-65
2023/01/23 08:26:19;;;;;;;;;;;20.60;37.30;;;;;;1491249;78;1158;-67
2023/01/23 08:28:21;;;;;;;;;;;20.60;37.60;;;;;;1490847;78;685;-67
2023/01/23 08:30:22;;;;;;;;;;;20.50;37.40;;;;;;1509295;78;776;-67
2023/01/23 08:32:24;;;;;;;;;;;20.40;37.40;;;;;;1493606;78;759;-68
2023/01/23 08:34:26;;;;;;;;;;;20.30;37.00;;;;;;1496895;78;723;-67
2023/01/23 08:36:28;;;;;;;;;;;20.30;36.90;;;;;;1478480;79;1950;-67
2023/01/23 08:38:30;;;;;;;;;;;20.30;36.80;;;;;;1476774;79;786;-66
2023/01/23 08:40:32;;;;;;;;;;;20.20;36.60;;;;;;1489101;78;679;-66
2023/01/23 08:42:34;;;;;;;;;;;20.20;36.60;;;;;;1490188;78;796;-67
2023/01/23 08:44:36;;;;;;;;;;;20.20;36.50;;;;;;1490930;78;778;-67
2023/01/23 08:46:38;;;;;;;;;;;20.10;36.40;;;;;;1491585;78;1229;-66
2023/01/23 08:48:39;;;;;;;;;;;20.10;36.20;;;;;;1488979;78;711;-68
2023/01/23 08:50:41;;;;;;;;;;;20.00;36.00;;;;;;1508748;78;715;-66
2023/01/23 08:52:43;;;;;;;;;;;20.00;36.20;;;;;;1503830;78;695;-66
2023/01/23 08:54:45;;;;;;;;;;;19.90;35.90;;;;;;1507445;78;811;-65
2023/01/23 08:56:47;;;;;;;;;;;20.00;35.90;;;;;;1491540;78;1949;-65
2023/01/23 08:58:49;;;;;;;;;;;19.90;35.60;;;;;;1493633;77;599;-67
2023/01/23 09:00:51;;;;;;;;;;;19.90;35.80;;;;;;1491439;78;639;-66
2023/01/23 09:02:53;;;;;;;;;;;19.80;35.40;;;;;;1493988;78;637;-66
2023/01/23 09:04:55;;;;;;;;;;;19.80;35.70;;;;;;1504703;78;812;-69
2023/01/23 09:06:57;;;;;;;;;;;19.80;35.60;;;;;;1494168;77;1161;-66
2023/01/23 09:08:58;;;;;;;;;;;19.70;35.70;;;;;;1489409;78;1459;-67
2023/01/23 09:11:02;;;;;;;;;;;19.70;35.40;;;;;;1486244;78;713;-66
2023/01/23 09:13:04;;;;;;;;;;;19.60;35.50;;;;;;1482373;78;1110;-67
2023/01/23 09:15:06;;;;;;;;;;;19.60;35.40;;;;;;1491417;78;704;-66
2023/01/23 09:17:08;;;;;;;;;;;19.60;35.20;;;;;;1495925;77;1938;-67
2023/01/23 09:19:11;;;;;;;;;;;19.50;35.30;;;;;;1497193;78;803;-68
2023/01/23 09:21:14;;;;;;;;;;;19.50;35.10;;;;;;1499677;78;728;-66
2023/01/23 09:23:16;;;;;;;;;;;19.50;35.20;;;;;;1498798;78;712;-66
2023/01/23 09:25:17;;;;;;;;;;;19.50;35.20;;;;;;1500570;78;796;-64
2023/01/23 09:27:20;;;;;;;;;;;19.50;35.10;;;;;;1498244;77;1268;-65
2023/01/23 09:29:22;;;;;;;;;;;19.40;35.00;;;;;;1506158;78;774;-66
2023/01/23 09:31:24;;;;;;;;;;;19.50;35.10;;;;;;1500959;78;798;-65
2023/01/23 09:33:26;;;;;;;;;;;19.40;34.90;;;;;;1501878;78;792;-66
2023/01/23 09:35:28;;;;;;;;;;;19.40;35.00;;;;;;1491295;78;796;-65
2023/01/23 09:37:58;;;;;;;;;;;19.30;34.90;;;;;;1500130;77;1958;-66
2023/01/23 09:39:33;;;;;;;;;;;19.30;34.70;;;;;;1496958;78;1406;-65
2023/01/23 09:41:35;;;;;;;;;;;19.30;34.80;;;;;;1506378;78;773;-65
2023/01/23 09:43:39;;;;;;;;;;;19.30;34.70;;;;;;1494634;78;780;-65
2023/01/23 09:45:41;;;;;;;;;;;19.30;34.70;;;;;;1492127;78;772;-67
2023/01/23 09:47:44;;;;;;;;;;;19.20;34.70;;;;;;1506237;77;1203;-68
2023/01/23 09:49:47;;;;;;;;;;;19.20;34.70;;;;;;1506337;78;773;-66
2023/01/23 09:51:51;;;;;;;;;;;19.20;34.70;;;;;;1506418;78;745;-67
2023/01/23 09:53:54;;;;;;;;;;;19.20;34.70;;;;;;1500461;78;682;-67
2023/01/23 09:55:58;;;;;;;;;;;19.10;34.70;;;;;;1497963;78;751;-67
2023/01/23 09:58:02;;;;;;;;;;;19.10;34.70;;;;;;1500134;78;1950;-66
2023/01/23 10:00:08;;;;;;;;;;;19.00;34.50;;;;;;1493685;78;1391;-68
2023/01/23 10:02:14;;;;;;;;;;;19.10;34.40;;;;;;1492180;78;1997;-66
2023/01/23 10:04:16;;;;;;;;;;;19.00;34.50;;;;;;1504677;78;1457;-66
2023/01/23 10:06:25;;;;;;;;;;;19.00;34.40;;;;;;1498220;78;1183;-66
2023/01/23 10:08:31;;;;;;;;;;;19.00;34.40;;;;;;1490426;78;554;-66
2023/01/23 10:10:47;;;;;;;;;;;19.00;34.40;;;;;;1492199;78;758;-68
2023/01/23 10:13:08;;;;;;;;;;;19.00;34.50;;;;;;1420569;78;1152;-67
2023/01/23 10:15:26;;;;;;;;;;;18.90;34.30;;;;;;1478614;78;689;-68
2023/01/23 10:17:39;;;;;;;;;;;18.90;34.40;;;;;;1491470;78;1944;-68
2023/01/23 10:19:42;;;;;;;;;;;18.80;34.20;;;;;;1487403;78;827;-66
2023/01/23 10:21:46;;;;;;;;;;;18.70;34.60;;;;;;1492804;78;651;-66
2023/01/23 10:23:48;;;;;;;;;;;18.80;35.20;;;;;;1491374;78;586;-65
2023/01/23 10:25:50;;;;;;;;;;;18.80;35.60;;;;;;1496594;78;797;-67
2023/01/23 10:27:53;;;;;;;;;;;18.90;35.90;;;;;;1496094;78;1173;-66
2023/01/23 10:29:59;;;;;;;;;;;18.90;36.20;;;;;;1466615;79;803;-67
2023/01/23 10:32:01;;;;;;;;;;;18.90;36.30;;;;;;1485076;78;792;-66
2023/01/23 10:34:04;;;;;;;;;;;18.90;36.60;;;;;;1486372;78;837;-66
2023/01/23 10:36:08;;;;;;;;;;;19.00;36.90;;;;;;1493675;78;1146;-67
2023/01/23 10:38:27;;;;;;;;;;;19.00;36.90;;;;;;1489092;78;1934;-66
2023/01/23 10:42:49;;;;;;;;;;;19.00;37.10;;;;;;1491754;78;718;-67
2023/01/23 10:44:50;;;;;;;;;;;19.00;37.50;;;;;;1489817;78;689;-67
2023/01/23 10:46:53;;;;;;;;;;;19.10;37.70;;;;;;1486248;78;1084;-71
2023/01/23 10:48:55;;;;;;;;;;;19.10;37.80;;;;;;1495254;78;739;-69
2023/01/23 10:50:57;;;;;;;;;;;19.20;37.90;;;;;;1489271;78;811;-65
2023/01/23 10:53:01;;;;;;;;;;;19.20;38.00;;;;;;1495670;78;730;-64
2023/01/23 10:55:07;;;;;;;;;;;19.20;38.10;;;;;;1488403;78;1500;-65
2023/01/23 10:57:11;;;;;;;;;;;19.20;38.20;;;;;;1487294;78;1961;-65
2023/01/23 10:59:17;;;;;;;;;;;19.30;38.50;;;;;;1493189;78;774;-66
2023/01/23 11:01:20;;;;;;;;;;;19.30;38.50;;;;;;1492724;78;1667;-65
2023/01/23 11:03:24;;;;;;;;;;;19.30;38.70;;;;;;1496394;78;1828;-66
2023/01/23 11:05:39;;;;;;;;;;;19.30;38.70;;;;;;1495376;78;833;-66
2023/01/23 11:07:41;;;;;;;;;;;19.30;38.90;;;;;;1493630;78;1127;-68
2023/01/23 11:09:46;;;;;;;;;;;19.30;38.90;;;;;;1491232;78;810;-67
2023/01/23 11:11:56;;;;;;;;;;;19.40;39.00;;;;;;1490179;78;674;-66
2023/01/23 11:14:05;;;;;;;;;;;19.40;39.10;;;;;;1493319;78;1000;-68
2023/01/23 11:16:08;;;;;;;;;;;19.40;39.20;;;;;;1490830;78;1177;-67
2023/01/23 11:18:11;;;;;;;;;;;19.40;39.30;;;;;;1497969;78;1942;-69
2023/01/23 11:20:23;;;;;;;;;;;19.40;39.30;;;;;;1492618;78;1104;-67
2023/01/23 11:22:29;;;;;;;;;;;19.50;39.50;;;;;;1494318;78;876;-67
2023/01/23 11:24:32;;;;;;;;;;;19.50;39.50;;;;;;1491983;78;707;-67
2023/01/23 11:26:34;;;;;;;;;;;19.40;39.50;;;;;;1492770;78;1240;-66
2023/01/23 11:28:37;;;;;;;;;;;19.50;39.70;;;;;;1495167;78;792;-67
2023/01/23 11:30:44;;;;;;;;;;;19.50;39.70;;;;;;1493823;78;1311;-68
2023/01/23 11:32:51;;;;;;;;;;;19.50;39.80;;;;;;1496247;78;699;-67
2023/01/23 11:34:54;;;;;;;;;;;19.50;39.80;;;;;;1495466;78;869;-69
2023/01/23 11:37:06;;;;;;;;;;;19.50;39.80;;;;;;1492391;78;1169;-68
2023/01/23 11:39:19;;;;;;;;;;;19.60;39.90;;;;;;1483917;78;1943;-67
2023/01/23 11:41:25;;;;;;;;;;;19.50;40.00;;;;;;1486704;78;1828;-66
2023/01/23 11:43:27;;;;;;;;;;;19.60;40.00;;;;;;1493660;78;1111;-67
2023/01/23 11:45:30;;;;;;;;;;;19.60;40.10;;;;;;1496100;78;706;-67
2023/01/23 11:47:36;;;;;;;;;;;19.50;40.10;;;;;;1494416;77;1146;-69
2023/01/23 11:49:58;;;;;;;;;;;19.60;40.10;;;;;;1493130;78;750;-67
2023/01/23 11:52:05;;;;;;;;;;;19.60;40.30;;;;;;1485198;78;1883;-66
2023/01/23 11:54:08;;;;;;;;;;;19.60;40.40;;;;;;1494137;78;702;-65
2023/01/23 11:56:24;;;;;;;;;;;19.60;40.30;;;;;;1492131;78;1130;-65
2023/01/23 11:58:30;;;;;;;;;;;19.60;40.50;;;;;;1492821;78;1929;-66
2023/01/23 12:00:36;;;;;;;;;;;19.60;40.50;;;;;;1495040;78;2008;-66
2023/01/23 12:02:42;;;;;;;;;;;19.70;40.70;;;;;;1497543;78;1625;-66
2023/01/23 12:04:46;;;;;;;;;;;19.60;40.70;;;;;;1493967;78;2106;-66
2023/01/23 12:06:52;;;;;;;;;;;19.60;40.70;;;;;;1488030;78;1108;-67
2023/01/23 12:09:02;;;;;;;;;;;19.70;41.00;;;;;;1495388;78;1844;-66
2023/01/23 12:11:15;;;;;;;;;;;19.60;40.90;;;;;;1489869;78;736;-66
2023/01/23 12:13:24;;;;;;;;;;;19.60;41.00;;;;;;1482765;78;852;-67
2023/01/23 12:15:28;;;;;;;;;;;19.60;41.00;;;;;;1485739;78;692;-66
2023/01/23 12:17:34;;;;;;;;;;;19.60;41.00;;;;;;1508245;73;228393;-71
2023/01/23 12:19:59;;;;;;;;;;;19.70;41.30;;;;;;1518283;77;1685;-70
2023/01/23 12:22:08;;;;;;;;;;;19.60;41.10;;;;;;1514955;77;960;-70